createdAt,value
2019-06-01T00:01:55.909Z,45.87
2019-06-01T00:04:27.945Z,45.91
2019-06-01T00:06:59.832Z,46.05
2019-06-01T00:09:31.734Z,46.09
2019-06-01T00:12:03.411Z,46.07
2019-06-01T00:14:35.540Z,46.00
2019-06-01T00:17:07.234Z,46.06
2019-06-01T00:19:39.943Z,46.17
2019-06-01T00:22:11.843Z,46.27
2019-06-01T00:24:44.360Z,46.34
2019-06-01T00:27:16.122Z,46.45
2019-06-01T00:29:49.517Z,46.67
2019-06-01T00:32:21.554Z,46.74
2019-06-01T00:34:53.390Z,46.82
2019-06-01T00:37:25.252Z,46.82
2019-06-01T00:39:57.345Z,47.00
2019-06-01T00:42:29.291Z,47.00
2019-06-01T00:45:01.151Z,46.97
2019-06-01T00:47:33.151Z,47.26
2019-06-01T00:50:08.164Z,47.73
2019-06-01T00:52:39.948Z,48.01
2019-06-01T00:55:11.684Z,48.11
2019-06-01T00:57:43.545Z,48.34
2019-06-01T01:00:15.404Z,48.47
2019-06-01T01:02:48.036Z,48.65
2019-06-01T01:05:20.282Z,48.84
2019-06-01T01:07:53.567Z,49.02
2019-06-01T01:10:25.901Z,49.44
2019-06-01T01:13:06.615Z,49.88
2019-06-01T01:15:39.162Z,50.60
2019-06-01T01:18:11.072Z,51.00
2019-06-01T01:20:42.781Z,51.44
2019-06-01T01:23:14.745Z,51.65
2019-06-01T01:25:46.825Z,51.85
2019-06-01T01:28:18.807Z,52.10
2019-06-01T01:31:06.594Z,52.26
2019-06-01T01:33:25.819Z,52.47
2019-06-01T01:35:57.912Z,52.63
2019-06-01T01:38:29.849Z,52.77
2019-06-01T01:41:01.835Z,53.03
2019-06-01T01:43:33.704Z,53.13
2019-06-01T01:46:05.697Z,53.31
2019-06-01T01:48:37.672Z,53.55
2019-06-01T01:51:09.679Z,53.59
2019-06-01T01:53:41.472Z,53.77
2019-06-01T01:56:13.322Z,53.89
2019-06-01T01:58:45.401Z,54.08
2019-06-01T02:01:22.860Z,54.26
2019-06-01T02:03:51.812Z,54.37
2019-06-01T02:06:24.331Z,54.47
2019-06-01T02:08:57.111Z,54.54
2019-06-01T02:11:29.288Z,54.63
2019-06-01T02:14:02.081Z,54.70
2019-06-01T02:16:35.365Z,54.83
2019-06-01T02:19:07.280Z,54.94
2019-06-01T02:21:39.192Z,55.01
2019-06-01T02:24:11.148Z,55.05
2019-06-01T02:26:42.967Z,55.17
2019-06-01T02:29:14.876Z,55.21
2019-06-01T02:31:46.784Z,55.26
2019-06-01T02:34:18.599Z,55.36
2019-06-01T02:36:50.501Z,55.43
2019-06-01T02:39:22.377Z,55.53
2019-06-01T02:41:56.683Z,55.64
2019-06-01T02:44:28.700Z,55.73
2019-06-01T02:47:01.550Z,55.71
2019-06-01T02:49:33.559Z,55.82
2019-06-01T02:52:06.141Z,55.89
2019-06-01T02:54:37.945Z,55.91
2019-06-01T02:57:09.954Z,55.95
2019-06-01T02:59:41.869Z,55.92
2019-06-01T03:02:15.042Z,56.00
2019-06-01T03:04:47.273Z,55.97
2019-06-01T03:07:19.265Z,55.94
2019-06-01T03:09:51.068Z,55.80
2019-06-01T03:12:22.873Z,55.43
2019-06-01T03:14:54.945Z,55.08
2019-06-01T03:17:26.836Z,54.74
2019-06-01T03:19:59.637Z,54.23
2019-06-01T03:22:33.242Z,53.72
2019-06-01T03:25:05.985Z,53.14
2019-06-01T03:27:38.418Z,52.49
2019-06-01T03:30:14.567Z,51.93
2019-06-01T03:32:46.361Z,51.42
2019-06-01T03:35:18.214Z,50.82
2019-06-01T03:37:50.530Z,50.20
2019-06-01T03:40:23.929Z,49.68
2019-06-01T03:42:56.099Z,48.99
2019-06-01T03:45:28.164Z,48.50
2019-06-01T03:48:00.485Z,48.14
2019-06-01T03:50:32.559Z,47.75
2019-06-01T03:53:04.409Z,47.05
2019-06-01T03:55:36.271Z,46.95
2019-06-01T03:58:09.125Z,46.81
2019-06-01T04:00:41.221Z,46.69
2019-06-01T04:03:13.187Z,46.59
2019-06-01T04:05:45.142Z,46.38
2019-06-01T04:08:17.142Z,46.59
2019-06-01T04:10:48.892Z,46.77
2019-06-01T04:13:20.887Z,46.87
2019-06-01T04:15:52.738Z,46.95
2019-06-01T04:18:24.686Z,47.25
2019-06-01T04:20:56.408Z,47.61
2019-06-01T04:23:28.251Z,47.98
2019-06-01T04:25:59.956Z,48.05
2019-06-01T04:28:31.834Z,48.19
2019-06-01T04:31:04.557Z,48.41
2019-06-01T04:33:36.621Z,48.19
2019-06-01T04:36:08.990Z,48.57
2019-06-01T04:38:41.103Z,48.67
2019-06-01T04:41:14.128Z,48.79
2019-06-01T04:43:46.290Z,48.83
2019-06-01T04:46:18.174Z,48.95
2019-06-01T04:48:50.150Z,49.12
2019-06-01T04:51:21.938Z,49.29
2019-06-01T04:53:53.889Z,49.62
2019-06-01T04:56:26.855Z,49.69
2019-06-01T04:58:58.719Z,49.90
2019-06-01T05:01:30.467Z,49.96
2019-06-01T05:04:02.322Z,50.20
2019-06-01T05:06:35.284Z,50.53
2019-06-01T05:09:09.290Z,50.92
2019-06-01T05:11:41.412Z,51.08
2019-06-01T05:14:13.802Z,51.06
2019-06-01T05:16:45.625Z,51.27
2019-06-01T05:19:17.414Z,51.35
2019-06-01T05:21:49.254Z,51.45
2019-06-01T05:24:21.429Z,51.72
2019-06-01T05:26:53.256Z,51.89
2019-06-01T05:29:25.244Z,51.83
2019-06-01T05:31:57.905Z,51.47
2019-06-01T05:34:29.792Z,51.47
2019-06-01T05:37:01.643Z,51.26
2019-06-01T05:39:33.566Z,51.05
2019-06-01T05:42:05.390Z,50.68
2019-06-01T05:44:37.174Z,50.07
2019-06-01T05:47:10.041Z,49.63
2019-06-01T05:49:42.007Z,49.09
2019-06-01T05:52:14.491Z,48.96
2019-06-01T05:54:46.459Z,48.72
2019-06-01T05:57:19.474Z,48.79
2019-06-01T05:59:51.271Z,48.82
2019-06-01T06:02:23.140Z,48.62
2019-06-01T06:04:54.953Z,48.71
2019-06-01T06:07:26.903Z,48.67
2019-06-01T06:09:58.795Z,48.55
2019-06-01T06:12:30.764Z,48.62
2019-06-01T06:15:02.681Z,48.98
2019-06-01T06:17:34.923Z,48.73
2019-06-01T06:20:06.768Z,48.78
2019-06-01T06:22:41.184Z,48.80
2019-06-01T06:25:14.170Z,48.28
2019-06-01T06:27:46.415Z,48.13
2019-06-01T06:30:19.007Z,48.09
2019-06-01T06:32:50.990Z,47.76
2019-06-01T06:35:23.713Z,47.45
2019-06-01T06:37:55.755Z,47.40
2019-06-01T06:40:27.731Z,47.15
2019-06-01T06:42:59.613Z,47.28
2019-06-01T06:45:31.565Z,47.14
2019-06-01T06:48:03.531Z,46.90
2019-06-01T06:50:35.313Z,46.32
2019-06-01T06:53:07.231Z,46.30
2019-06-01T06:55:40.303Z,45.96
2019-06-01T06:58:12.137Z,45.70
2019-06-01T07:00:43.930Z,45.47
2019-06-01T07:03:16.860Z,45.13
2019-06-01T07:05:48.879Z,44.26
2019-06-01T07:08:21.759Z,43.30
2019-06-01T07:10:53.836Z,42.38
2019-06-01T07:13:27.636Z,41.49
2019-06-01T07:15:59.714Z,41.55
2019-06-01T07:18:31.937Z,40.04
2019-06-01T07:21:03.884Z,38.44
2019-06-01T07:23:35.830Z,37.79
2019-06-01T07:26:07.780Z,36.27
2019-06-01T07:28:40.563Z,36.05
2019-06-01T07:31:12.417Z,34.20
2019-06-01T07:33:44.275Z,33.57
2019-06-01T07:36:16.232Z,33.34
2019-06-01T07:38:48.265Z,31.64
2019-06-01T07:41:20.669Z,30.95
2019-06-01T07:43:52.521Z,31.12
2019-06-01T07:46:24.898Z,30.33
2019-06-01T07:48:56.648Z,30.32
2019-06-01T07:51:29.635Z,30.21
2019-06-01T07:54:01.596Z,29.88
2019-06-01T07:56:33.399Z,29.86
2019-06-01T07:59:05.413Z,29.56
2019-06-01T08:01:37.211Z,29.20
2019-06-01T08:04:09.006Z,29.38
2019-06-01T08:06:46.391Z,28.75
2019-06-01T08:09:14.200Z,28.87
2019-06-01T08:11:45.991Z,29.38
2019-06-01T08:14:17.872Z,29.95
2019-06-01T08:16:49.717Z,30.09
2019-06-01T08:19:22.087Z,30.12
2019-06-01T08:21:54.218Z,30.51
2019-06-01T08:24:26.246Z,30.97
2019-06-01T08:26:58.130Z,30.94
2019-06-01T08:29:30.735Z,30.90
2019-06-01T08:32:02.656Z,31.30
2019-06-01T08:34:34.570Z,31.60
2019-06-01T08:37:06.384Z,31.91
2019-06-01T08:39:38.180Z,31.45
2019-06-01T08:42:10.106Z,31.80
2019-06-01T08:44:41.893Z,32.30
2019-06-01T08:47:13.658Z,31.47
2019-06-01T08:49:45.335Z,31.50
2019-06-01T08:52:17.199Z,31.86
2019-06-01T08:54:48.942Z,32.24
2019-06-01T08:57:20.713Z,32.52
2019-06-01T08:59:52.323Z,32.49
2019-06-01T09:02:24.583Z,32.02
2019-06-01T09:04:56.419Z,32.04
2019-06-01T09:07:28.991Z,32.40
2019-06-01T09:10:00.982Z,32.14
2019-06-01T09:12:33.294Z,32.41
2019-06-01T09:15:07.519Z,32.21
2019-06-01T09:17:39.219Z,31.88
2019-06-01T09:20:10.923Z,31.56
2019-06-01T09:22:42.654Z,31.85
2019-06-01T09:25:14.434Z,31.90
2019-06-01T09:27:46.237Z,32.13
2019-06-01T09:30:17.918Z,32.54
2019-06-01T09:32:49.730Z,32.73
2019-06-01T09:35:21.710Z,32.38
2019-06-01T09:37:53.564Z,32.23
2019-06-01T09:40:27.299Z,32.26
2019-06-01T09:42:58.831Z,31.81
2019-06-01T09:45:30.480Z,31.66
2019-06-01T09:48:02.335Z,32.25
2019-06-01T09:50:35.281Z,32.14
2019-06-01T09:53:07.378Z,31.78
2019-06-01T09:55:40.255Z,32.08
2019-06-01T09:58:15.018Z,31.82
2019-06-01T10:00:48.227Z,32.25
2019-06-01T10:03:19.962Z,32.69
2019-06-01T10:06:01.412Z,32.80
2019-06-01T10:08:25.188Z,32.79
2019-06-01T10:10:57.016Z,32.61
2019-06-01T10:13:30.322Z,32.83
2019-06-01T10:16:02.087Z,32.95
2019-06-01T10:18:35.221Z,32.95
2019-06-01T10:21:23.770Z,32.95
2019-06-01T10:23:55.542Z,32.81
2019-06-01T10:26:28.030Z,32.95
2019-06-01T10:28:59.769Z,32.72
2019-06-01T10:31:32.610Z,32.82
2019-06-01T10:34:04.848Z,32.16
2019-06-01T10:36:37.997Z,32.17
2019-06-01T10:39:09.989Z,32.04
2019-06-01T10:41:41.847Z,32.06
2019-06-01T10:44:13.718Z,31.94
2019-06-01T10:46:45.481Z,31.91
2019-06-01T10:49:17.357Z,32.01
2019-06-01T10:51:49.453Z,32.22
2019-06-01T10:54:21.337Z,31.92
2019-06-01T10:56:53.394Z,31.74
2019-06-01T10:59:25.336Z,31.68
2019-06-01T11:01:57.181Z,31.47
2019-06-01T11:04:28.963Z,31.45
2019-06-01T11:07:00.988Z,31.36
2019-06-01T11:09:33.034Z,32.22
2019-06-01T11:12:04.973Z,32.37
2019-06-01T11:14:37.115Z,32.24
2019-06-01T11:17:09.080Z,31.46
2019-06-01T11:19:42.076Z,31.19
2019-06-01T11:22:14.115Z,31.47
2019-06-01T11:24:45.968Z,31.44
2019-06-01T11:27:17.909Z,31.36
2019-06-01T11:29:51.721Z,31.14
2019-06-01T11:32:23.652Z,31.59
2019-06-01T11:34:55.500Z,31.43
2019-06-01T11:37:27.265Z,30.63
2019-06-01T11:39:59.059Z,30.66
2019-06-01T11:42:31.117Z,30.83
2019-06-01T11:45:03.042Z,30.56
2019-06-01T11:47:34.999Z,30.61
2019-06-01T11:50:07.106Z,31.08
2019-06-01T11:52:41.070Z,29.83
2019-06-01T11:55:13.122Z,29.85
2019-06-01T11:57:45.903Z,29.56
2019-06-01T12:00:17.988Z,29.62
2019-06-01T12:02:49.884Z,29.25
2019-06-01T12:05:21.595Z,29.10
2019-06-01T12:07:53.515Z,29.32
2019-06-01T12:10:25.411Z,29.36
2019-06-01T12:12:57.274Z,28.93
2019-06-01T12:15:29.109Z,28.56
2019-06-01T12:18:00.933Z,28.16
2019-06-01T12:20:32.699Z,28.44
2019-06-01T12:23:04.470Z,27.93
2019-06-01T12:25:36.185Z,27.98
2019-06-01T12:28:08.016Z,28.09
2019-06-01T12:30:39.815Z,27.77
2019-06-01T12:33:11.830Z,27.83
2019-06-01T12:35:44.021Z,27.71
2019-06-01T12:38:15.966Z,28.24
2019-06-01T12:40:47.858Z,28.36
2019-06-01T12:43:19.783Z,28.44
2019-06-01T12:46:05.527Z,28.71
2019-06-01T12:48:25.265Z,28.62
2019-06-01T12:50:57.043Z,28.33
2019-06-01T12:53:28.873Z,28.26
2019-06-01T12:56:00.724Z,28.44
2019-06-01T12:58:32.596Z,28.42
2019-06-01T13:01:04.482Z,28.40
2019-06-01T13:03:36.213Z,28.46
2019-06-01T13:06:08.160Z,28.09
2019-06-01T13:08:40.661Z,27.91
2019-06-01T13:11:14.201Z,27.76
2019-06-01T13:13:47.337Z,27.59
2019-06-01T13:16:19.157Z,28.04
2019-06-01T13:18:51.683Z,27.92
2019-06-01T13:21:27.546Z,27.94
2019-06-01T13:23:57.730Z,28.27
2019-06-01T13:26:29.558Z,28.14
2019-06-01T13:29:01.581Z,28.25
2019-06-01T13:31:34.501Z,28.07
2019-06-01T13:34:06.307Z,28.01
2019-06-01T13:36:38.151Z,27.85
2019-06-01T13:39:10.272Z,28.03
2019-06-01T13:41:43.012Z,27.78
2019-06-01T13:44:14.921Z,27.99
2019-06-01T13:46:49.469Z,28.07
2019-06-01T13:49:21.516Z,28.49
2019-06-01T13:51:54.560Z,28.16
2019-06-01T13:54:26.530Z,28.13
2019-06-01T13:56:58.348Z,28.17
2019-06-01T13:59:30.164Z,27.88
2019-06-01T14:02:02.087Z,28.13
2019-06-01T14:04:34.059Z,28.19
2019-06-01T14:07:05.851Z,28.74
2019-06-01T14:09:37.829Z,28.42
2019-06-01T14:12:09.554Z,28.33
2019-06-01T14:14:41.381Z,28.18
2019-06-01T14:17:13.230Z,28.14
2019-06-01T14:19:45.645Z,28.38
2019-06-01T14:22:17.493Z,28.35
2019-06-01T14:24:59.843Z,28.23
2019-06-01T14:27:22.795Z,28.14
2019-06-01T14:29:54.899Z,28.14
2019-06-01T14:32:26.691Z,28.20
2019-06-01T14:34:58.559Z,28.23
2019-06-01T14:37:30.424Z,28.22
2019-06-01T14:40:02.353Z,28.29
2019-06-01T14:42:34.386Z,28.31
2019-06-01T14:45:07.761Z,28.22
2019-06-01T14:47:39.477Z,28.07
2019-06-01T14:50:12.877Z,27.79
2019-06-01T14:52:44.590Z,27.89
2019-06-01T14:55:16.556Z,27.92
2019-06-01T14:57:49.946Z,27.92
2019-06-01T15:00:23.087Z,28.23
2019-06-01T15:02:54.883Z,28.56
2019-06-01T15:05:26.712Z,28.80
2019-06-01T15:07:59.175Z,28.29
2019-06-01T15:10:31.068Z,28.01
2019-06-01T15:13:03.623Z,28.16
2019-06-01T15:15:35.673Z,29.03
2019-06-01T15:18:10.831Z,30.16
2019-06-01T15:20:42.782Z,31.23
2019-06-01T15:23:14.622Z,33.27
2019-06-01T15:25:46.618Z,34.26
2019-06-01T15:28:18.587Z,35.36
2019-06-01T15:30:50.838Z,35.95
2019-06-01T15:33:22.917Z,36.35
2019-06-01T15:35:55.960Z,36.75
2019-06-01T15:38:28.044Z,37.05
2019-06-01T15:41:00.557Z,37.18
2019-06-01T15:43:32.578Z,37.28
2019-06-01T15:46:04.445Z,37.24
2019-06-01T15:48:36.352Z,37.13
2019-06-01T15:51:08.759Z,37.22
2019-06-01T15:53:40.623Z,37.50
2019-06-01T15:56:12.504Z,37.77
2019-06-01T15:58:52.823Z,38.10
2019-06-01T16:01:18.074Z,38.55
2019-06-01T16:03:49.982Z,38.90
2019-06-01T16:06:21.976Z,39.17
2019-06-01T16:08:55.128Z,39.37
2019-06-01T16:11:27.457Z,39.67
2019-06-01T16:13:59.905Z,40.04
2019-06-01T16:16:31.976Z,40.20
2019-06-01T16:19:07.751Z,40.59
2019-06-01T16:21:37.650Z,40.74
2019-06-01T16:24:09.713Z,40.87
2019-06-01T16:26:41.691Z,41.14
2019-06-01T16:29:13.596Z,41.30
2019-06-01T16:31:45.621Z,41.43
2019-06-01T16:34:17.512Z,41.59
2019-06-01T16:36:49.499Z,41.66
2019-06-01T16:39:21.407Z,41.86
2019-06-01T16:41:53.276Z,42.07
2019-06-01T16:44:25.088Z,42.17
2019-06-01T16:46:57.643Z,42.34
2019-06-01T16:49:29.680Z,42.37
2019-06-01T16:52:03.049Z,42.44
2019-06-01T16:54:35.234Z,42.62
2019-06-01T16:57:07.441Z,42.86
2019-06-01T16:59:39.401Z,43.11
2019-06-01T17:02:11.468Z,43.35
2019-06-01T17:04:43.360Z,43.48
2019-06-01T17:07:15.366Z,43.59
2019-06-01T17:09:47.253Z,43.56
2019-06-01T17:12:19.109Z,43.52
2019-06-01T17:14:51.020Z,43.47
2019-06-01T17:17:23.147Z,43.49
2019-06-01T17:19:55.356Z,43.34
2019-06-01T17:22:28.247Z,43.13
2019-06-01T17:25:00.149Z,43.10
2019-06-01T17:27:32.246Z,43.24
2019-06-01T17:30:09.290Z,43.37
2019-06-01T17:32:38.584Z,43.23
2019-06-01T17:35:10.391Z,43.21
2019-06-01T17:37:42.366Z,43.44
2019-06-01T17:40:14.313Z,43.42
2019-06-01T17:42:46.336Z,43.57
2019-06-01T17:45:18.141Z,43.68
2019-06-01T17:47:50.019Z,43.87
2019-06-01T17:50:22.542Z,44.00
2019-06-01T17:52:54.624Z,44.07
2019-06-01T17:55:29.420Z,44.11
2019-06-01T17:58:01.601Z,44.26
2019-06-01T18:00:33.828Z,44.06
2019-06-01T18:03:10.089Z,44.04
2019-06-01T18:05:43.475Z,44.01
2019-06-01T18:08:15.511Z,44.00
2019-06-01T18:10:54.660Z,44.03
2019-06-01T18:13:21.203Z,44.08
2019-06-01T18:15:53.150Z,44.25
2019-06-01T18:18:25.295Z,44.43
2019-06-01T18:20:57.183Z,44.60
2019-06-01T18:23:29.294Z,44.83
2019-06-01T18:26:02.432Z,44.93
2019-06-01T18:28:34.840Z,45.03
2019-06-01T18:31:06.813Z,45.25
2019-06-01T18:33:38.736Z,45.52
2019-06-01T18:36:11.620Z,45.73
2019-06-01T18:38:43.775Z,45.98
2019-06-01T18:41:19.477Z,46.12
2019-06-01T18:43:49.383Z,46.32
2019-06-01T18:46:21.279Z,46.07
2019-06-01T18:48:53.368Z,46.02
2019-06-01T18:51:25.428Z,46.34
2019-06-01T18:53:57.375Z,46.49
2019-06-01T18:56:29.348Z,46.37
2019-06-01T18:59:04.868Z,46.51
2019-06-01T19:01:36.645Z,46.58
2019-06-01T19:04:09.702Z,46.58
2019-06-01T19:06:41.927Z,46.56
2019-06-01T19:09:13.872Z,46.63
2019-06-01T19:11:45.856Z,46.92
2019-06-01T19:14:17.819Z,47.01
2019-06-01T19:16:49.705Z,47.16
2019-06-01T19:19:21.700Z,47.21
2019-06-01T19:21:54.687Z,47.23
2019-06-01T19:24:26.635Z,47.30
2019-06-01T19:26:59.284Z,47.08
2019-06-01T19:29:31.287Z,47.01
2019-06-01T19:32:03.258Z,47.16
2019-06-01T19:34:36.373Z,47.17
2019-06-01T19:37:08.972Z,47.09
2019-06-01T19:39:41.285Z,46.98
2019-06-01T19:42:15.526Z,46.77
2019-06-01T19:44:47.880Z,46.54
2019-06-01T19:47:19.889Z,46.38
2019-06-01T19:49:51.784Z,46.25
2019-06-01T19:52:23.885Z,46.37
2019-06-01T19:54:55.868Z,46.33
2019-06-01T19:57:27.925Z,46.35
2019-06-01T19:59:59.883Z,46.40
2019-06-01T20:02:34.266Z,46.28
2019-06-01T20:05:06.476Z,45.14
2019-06-01T20:07:38.535Z,44.49
2019-06-01T20:10:10.723Z,43.93
2019-06-01T20:12:42.686Z,43.72
2019-06-01T20:15:15.515Z,43.58
2019-06-01T20:17:47.740Z,43.47
2019-06-01T20:20:19.824Z,43.78
2019-06-01T20:22:52.087Z,44.21
2019-06-01T20:25:24.040Z,44.77
2019-06-01T20:27:56.003Z,45.29
2019-06-01T20:30:28.151Z,45.81
2019-06-01T20:33:00.261Z,46.48
2019-06-01T20:35:32.211Z,47.49
2019-06-01T20:38:04.273Z,48.66
2019-06-01T20:40:36.314Z,49.86
2019-06-01T20:43:08.339Z,50.50
2019-06-01T20:45:40.364Z,50.93
2019-06-01T20:48:13.338Z,51.27
2019-06-01T20:50:45.950Z,51.81
2019-06-01T20:53:18.940Z,52.42
2019-06-01T20:55:50.894Z,52.87
2019-06-01T20:58:23.796Z,53.23
2019-06-01T21:00:56.524Z,53.57
2019-06-01T21:03:28.423Z,54.05
2019-06-01T21:06:00.388Z,54.16
2019-06-01T21:08:32.491Z,54.50
2019-06-01T21:11:04.386Z,54.65
2019-06-01T21:13:36.169Z,54.71
2019-06-01T21:16:08.045Z,54.89
2019-06-01T21:18:39.987Z,55.01
2019-06-01T21:21:14.202Z,55.26
2019-06-01T21:23:46.369Z,55.46
2019-06-01T21:26:18.925Z,55.59
2019-06-01T21:28:50.918Z,55.44
2019-06-01T21:31:23.201Z,55.30
2019-06-01T21:33:55.237Z,55.40
2019-06-01T21:36:27.146Z,55.80
2019-06-01T21:38:59.063Z,55.87
2019-06-01T21:41:30.974Z,55.81
2019-06-01T21:44:02.847Z,55.69
2019-06-01T21:46:34.691Z,55.32
2019-06-01T21:49:06.558Z,55.25
2019-06-01T21:51:38.384Z,55.16
2019-06-01T21:54:10.178Z,54.93
2019-06-01T21:56:42.471Z,54.87
2019-06-01T21:59:14.276Z,54.90
2019-06-01T22:01:46.184Z,54.95
2019-06-01T22:04:19.082Z,54.97
2019-06-01T22:06:51.090Z,54.88
2019-06-01T22:09:23.367Z,54.91
2019-06-01T22:11:55.508Z,54.84
2019-06-01T22:14:27.744Z,54.70
2019-06-01T22:16:59.747Z,54.57
2019-06-01T22:19:31.618Z,54.31
2019-06-01T22:22:03.447Z,54.18
2019-06-01T22:24:35.343Z,54.20
2019-06-01T22:27:07.156Z,54.09
2019-06-01T22:29:39.038Z,53.90
2019-06-01T22:32:10.867Z,53.69
2019-06-01T22:34:42.746Z,53.55
2019-06-01T22:37:14.608Z,53.42
2019-06-01T22:39:46.400Z,53.39
2019-06-01T22:42:18.275Z,53.41
2019-06-01T22:44:50.284Z,53.35
2019-06-01T22:47:22.545Z,53.15
2019-06-01T22:49:54.655Z,53.13
2019-06-01T22:52:27.068Z,53.16
2019-06-01T22:54:59.069Z,53.10
2019-06-01T22:57:31.043Z,53.06
2019-06-01T23:00:02.887Z,53.09
2019-06-01T23:02:34.621Z,53.12
2019-06-01T23:05:06.532Z,53.15
2019-06-01T23:07:38.578Z,53.16
2019-06-01T23:10:10.711Z,53.17
2019-06-01T23:12:42.564Z,53.23
2019-06-01T23:15:14.340Z,53.25
2019-06-01T23:17:46.228Z,53.30
2019-06-01T23:20:17.893Z,53.29
2019-06-01T23:22:49.870Z,53.32
2019-06-01T23:25:22.551Z,53.42
2019-06-01T23:27:54.689Z,53.37
2019-06-01T23:30:26.483Z,53.46
2019-06-01T23:32:58.411Z,53.39
2019-06-01T23:35:30.706Z,53.43
2019-06-01T23:38:02.615Z,53.54
2019-06-01T23:40:34.334Z,53.56
2019-06-01T23:43:07.746Z,53.61
2019-06-01T23:45:39.510Z,53.67
2019-06-01T23:48:11.436Z,53.83
2019-06-01T23:50:43.260Z,53.96
2019-06-01T23:53:15.108Z,54.02
2019-06-01T23:55:46.882Z,54.09
2019-06-01T23:58:18.948Z,54.15
